Terminal Aerodrome Forecast
Issued by NWS

Home | Current Version | Previous Version | Text Only | Print | Product List | Glossary On
Versions: 1 2 3 4 5 6 7 8 9 10 11 12 13 14 15
000
FTUS42 KGSP 231942 AAA
TAFAND
TAF AMD
KAND 231942Z 2320/2418 19005KT P6SM VCTS SCT060CB
      TEMPO 2320/2322 VRB10G20KT 6SM TSRA BR SCT030CB BKN060
     FM240000 VRB02KT P6SM FEW060
     FM240900 00000KT 5SM BR SCT250
     FM241500 24005KT P6SM FEW050=

USA.gov is the U.S. government's official web portal to all federal, state and local government web resources and services.